Time;durP1;ratioP1;P1;durP2;ratioP2;P2;SDS_P1;SDS_P2;PMS_P1;PMS_P2;Temp;Humidity;BMP_temperature;BMP_pressure;BME280_temperature;BME280_humidity;BME280_pressure;Samples;Min_cycle;Max_cycle;Signal;HPM_P1;HPM_P2
2021/06/30 00:00:42;;;;;;;5.03;1.70;;;25.70;55.20;;;;;;5023576;28;20190;-52
2021/06/30 00:03:08;;;;;;;1.53;1.40;;;25.60;55.40;;;;;;5027066;28;20235;-49
2021/06/30 00:05:34;;;;;;;3.30;1.40;;;25.60;55.70;;;;;;5026732;28;20220;-53
2021/06/30 00:07:59;;;;;;;2.70;1.30;;;25.60;55.50;;;;;;5024718;28;20694;-53
2021/06/30 00:10:25;;;;;;;2.50;1.73;;;25.60;55.60;;;;;;5021914;28;20252;-51
2021/06/30 00:12:50;;;;;;;3.83;1.53;;;25.60;55.40;;;;;;5024989;28;20658;-48
2021/06/30 00:15:24;;;;;;;2.97;1.60;;;25.70;55.30;;;;;;5027638;28;20200;-53
2021/06/30 00:17:49;;;;;;;3.70;1.73;;;25.50;55.40;;;;;;5025228;28;20201;-49
2021/06/30 00:20:15;;;;;;;2.73;1.80;;;25.40;55.50;;;;;;5029704;28;20443;-50
2021/06/30 00:22:41;;;;;;;4.37;1.60;;;25.30;55.80;;;;;;5031933;28;20225;-49
2021/06/30 00:25:08;;;;;;;2.80;1.60;;;25.20;56.40;;;;;;5026871;28;20212;-50
2021/06/30 00:27:34;;;;;;;2.07;1.97;;;25.20;56.50;;;;;;5029402;28;20440;-53
2021/06/30 00:30:00;;;;;;;1.67;1.57;;;25.20;56.00;;;;;;5025323;28;20444;-49
2021/06/30 00:32:26;;;;;;;2.20;1.80;;;24.70;57.50;;;;;;5026952;28;20455;-49
2021/06/30 00:34:52;;;;;;;2.40;1.80;;;24.70;58.00;;;;;;5023580;28;20194;-50
2021/06/30 00:37:18;;;;;;;2.57;1.40;;;24.80;57.80;;;;;;5028690;28;20637;-53
2021/06/30 00:39:44;;;;;;;3.40;1.80;;;24.90;57.60;;;;;;5026168;28;20193;-50
2021/06/30 00:42:10;;;;;;;1.60;1.40;;;25.00;57.40;;;;;;5029790;28;20574;-52
2021/06/30 00:44:35;;;;;;;1.87;1.50;;;25.10;57.30;;;;;;5019273;28;20630;-52
2021/06/30 00:47:02;;;;;;;1.97;1.73;;;25.10;57.20;;;;;;5022246;28;20296;-52
2021/06/30 00:49:28;;;;;;;1.40;1.20;;;25.10;56.90;;;;;;5028143;28;20189;-49
2021/06/30 00:51:53;;;;;;;1.90;1.80;;;25.10;56.80;;;;;;5025499;28;20445;-53
2021/06/30 00:54:19;;;;;;;3.47;1.90;;;25.20;56.90;;;;;;5029596;28;20220;-50
2021/06/30 00:56:45;;;;;;;1.67;1.50;;;25.00;57.00;;;;;;5023114;28;20278;-49
2021/06/30 00:59:12;;;;;;;5.20;1.60;;;24.70;57.20;;;;;;5025595;28;20208;-49
2021/06/30 01:01:39;;;;;;;1.90;1.80;;;24.60;57.60;;;;;;5027101;28;20203;-52
2021/06/30 01:04:05;;;;;;;2.70;1.50;;;24.50;58.10;;;;;;5024267;28;20465;-48
2021/06/30 01:06:31;;;;;;;2.27;1.80;;;24.50;58.20;;;;;;5023463;28;20857;-52
2021/06/30 01:09:03;;;;;;;4.00;1.70;;;24.70;58.10;;;;;;5028077;28;20197;-52
2021/06/30 01:11:28;;;;;;;1.80;1.70;;;24.80;57.90;;;;;;5024832;28;20292;-52
2021/06/30 01:13:54;;;;;;;1.87;1.70;;;24.80;57.60;;;;;;5025620;28;20627;-53
2021/06/30 01:16:20;;;;;;;2.40;1.70;;;24.80;58.40;;;;;;5027993;28;20926;-52
2021/06/30 01:18:45;;;;;;;2.50;1.93;;;24.90;57.90;;;;;;5026527;28;20603;-49
2021/06/30 01:21:11;;;;;;;1.97;1.77;;;24.80;56.90;;;;;;5022235;28;20220;-48
2021/06/30 01:23:40;;;;;;;1.90;1.80;;;24.80;58.00;;;;;;5023374;28;20304;-48
2021/06/30 01:26:06;;;;;;;2.00;1.80;;;24.80;58.40;;;;;;5026958;28;20498;-50
2021/06/30 01:28:33;;;;;;;3.40;1.73;;;24.80;57.70;;;;;;5024818;28;21008;-49
2021/06/30 01:31:00;;;;;;;1.90;1.80;;;24.80;57.60;;;;;;5028749;28;20522;-48
2021/06/30 01:33:26;;;;;;;1.90;1.60;;;24.70;57.00;;;;;;5029454;28;20475;-51
2021/06/30 01:35:52;;;;;;;1.60;1.50;;;24.40;57.10;;;;;;5028802;28;20440;-50
2021/06/30 01:38:29;;;;;;;3.43;1.60;;;24.20;57.40;;;;;;5021415;28;20439;-48
2021/06/30 01:40:56;;;;;;;2.07;1.40;;;23.70;58.00;;;;;;5026021;28;20897;-51
2021/06/30 01:43:22;;;;;;;2.07;1.57;;;23.20;58.40;;;;;;5025207;28;20502;-50
2021/06/30 01:45:53;;;;;;;1.70;1.60;;;23.00;59.00;;;;;;5025704;28;20555;-48
2021/06/30 01:48:19;;;;;;;4.10;1.57;;;22.90;59.30;;;;;;5023045;28;20860;-50
2021/06/30 01:50:45;;;;;;;1.43;1.30;;;22.50;59.50;;;;;;5025503;28;20448;-49
2021/06/30 01:53:11;;;;;;;3.80;1.57;;;22.30;60.30;;;;;;5025365;28;21100;-48
2021/06/30 01:55:37;;;;;;;1.50;1.40;;;22.00;60.80;;;;;;5021134;28;20531;-51
2021/06/30 01:58:04;;;;;;;1.70;1.07;;;21.90;61.20;;;;;;5025723;28;20193;-47
2021/06/30 02:00:30;;;;;;;2.27;1.03;;;21.20;61.50;;;;;;5022621;28;20609;-47
2021/06/30 02:02:56;;;;;;;1.50;1.03;;;21.00;63.20;;;;;;5026853;28;20488;-49
2021/06/30 02:05:22;;;;;;;2.10;1.50;;;21.00;65.30;;;;;;5022510;28;20486;-47
2021/06/30 02:07:51;;;;;;;1.50;1.30;;;20.90;64.60;;;;;;5022744;28;20197;-51
2021/06/30 02:10:19;;;;;;;2.40;1.40;;;20.70;64.50;;;;;;5019949;28;20459;-50
2021/06/30 02:12:45;;;;;;;1.87;1.30;;;21.00;64.90;;;;;;5025808;28;20498;-47
2021/06/30 02:15:21;;;;;;;0.90;0.90;;;21.00;64.60;;;;;;5020821;28;20456;-48
2021/06/30 02:17:48;;;;;;;1.30;1.20;;;21.20;63.70;;;;;;5021288;28;20826;-52
2021/06/30 02:20:15;;;;;;;2.07;0.90;;;21.20;62.40;;;;;;5025826;28;20428;-51
2021/06/30 02:22:40;;;;;;;1.73;0.90;;;21.20;62.40;;;;;;5028194;28;20858;-49
2021/06/30 02:25:09;;;;;;;3.50;1.20;;;21.30;62.20;;;;;;5026131;28;20451;-50
2021/06/30 02:27:34;;;;;;;1.67;0.80;;;21.50;62.70;;;;;;5023699;28;20661;-50
2021/06/30 02:30:01;;;;;;;2.80;1.00;;;21.80;63.20;;;;;;5018703;28;20448;-49
2021/06/30 02:32:26;;;;;;;1.90;1.10;;;21.90;61.60;;;;;;5027598;28;20558;-51
2021/06/30 02:34:52;;;;;;;8.23;1.10;;;21.90;61.00;;;;;;5027161;28;20458;-51
2021/06/30 02:37:17;;;;;;;1.07;1.07;;;21.70;61.10;;;;;;5026700;28;20217;-49
2021/06/30 02:39:43;;;;;;;0.73;0.73;;;21.70;61.20;;;;;;5029473;28;20189;-48
2021/06/30 02:42:09;;;;;;;3.43;1.00;;;21.60;61.50;;;;;;5032079;28;20567;-48
2021/06/30 02:44:35;;;;;;;0.87;0.87;;;21.50;61.10;;;;;;5025324;28;20193;-53
2021/06/30 02:47:00;;;;;;;1.63;0.80;;;21.40;61.00;;;;;;5025537;28;20213;-49
2021/06/30 02:49:26;;;;;;;0.80;0.80;;;21.50;61.80;;;;;;5029000;28;20547;-52
2021/06/30 02:51:51;;;;;;;0.70;0.70;;;21.50;61.00;;;;;;5030409;28;20201;-52
2021/06/30 02:54:17;;;;;;;0.80;0.80;;;21.20;61.40;;;;;;5030428;28;20197;-52
2021/06/30 02:56:43;;;;;;;1.43;0.90;;;21.20;61.40;;;;;;5025112;28;20219;-48
2021/06/30 02:59:08;;;;;;;0.83;0.83;;;21.10;60.90;;;;;;5031125;28;20674;-48
2021/06/30 03:01:34;;;;;;;0.80;0.73;;;21.20;61.10;;;;;;5030380;28;20186;-50
2021/06/30 03:04:00;;;;;;;1.73;0.93;;;21.20;60.30;;;;;;5031576;28;20229;-52
2021/06/30 03:06:26;;;;;;;1.10;0.70;;;21.10;59.70;;;;;;5029161;28;20205;-52
2021/06/30 03:08:52;;;;;;;0.70;0.70;;;20.90;59.20;;;;;;5024990;28;20437;-53
2021/06/30 03:11:17;;;;;;;0.90;0.77;;;20.70;60.00;;;;;;5030664;28;20440;-50
2021/06/30 03:13:43;;;;;;;1.37;0.70;;;20.60;60.10;;;;;;5027696;28;20642;-50
2021/06/30 03:16:09;;;;;;;0.70;0.70;;;20.50;60.30;;;;;;5016436;28;20198;-53
2021/06/30 03:18:34;;;;;;;1.80;0.90;;;20.40;59.70;;;;;;5028484;28;20439;-51
2021/06/30 03:21:00;;;;;;;2.93;0.80;;;20.00;60.10;;;;;;5031624;28;20669;-48
2021/06/30 03:23:26;;;;;;;1.03;0.90;;;20.00;61.20;;;;;;5025578;28;20229;-50
2021/06/30 03:25:52;;;;;;;1.10;0.60;;;19.90;61.40;;;;;;5029453;28;20204;-49
2021/06/30 03:28:17;;;;;;;1.30;0.77;;;20.00;61.10;;;;;;5027783;28;20802;-51
2021/06/30 03:30:43;;;;;;;0.80;0.80;;;19.80;60.90;;;;;;5027443;28;20235;-48
2021/06/30 03:33:09;;;;;;;1.10;0.70;;;19.80;61.10;;;;;;5026865;28;20194;-50
2021/06/30 03:35:35;;;;;;;2.10;0.90;;;19.70;61.30;;;;;;5023732;28;20997;-52
2021/06/30 03:38:01;;;;;;;0.90;0.67;;;19.80;61.40;;;;;;5029369;28;20444;-48
2021/06/30 03:40:26;;;;;;;1.00;0.70;;;19.80;61.10;;;;;;5030564;28;20237;-48
2021/06/30 03:42:52;;;;;;;2.63;0.90;;;19.90;61.30;;;;;;5028769;28;20282;-49
2021/06/30 03:45:17;;;;;;;1.60;0.73;;;19.80;61.60;;;;;;5026668;28;20217;-51
2021/06/30 03:47:43;;;;;;;1.97;0.57;;;19.70;61.70;;;;;;5025253;28;20201;-50
2021/06/30 03:50:09;;;;;;;0.70;0.60;;;19.60;61.80;;;;;;5023499;28;20311;-48
2021/06/30 03:52:34;;;;;;;0.70;0.70;;;19.40;62.00;;;;;;5025657;28;20212;-50
2021/06/30 03:55:00;;;;;;;0.80;0.70;;;19.40;62.30;;;;;;5024813;28;20448;-50
2021/06/30 03:57:26;;;;;;;1.53;0.73;;;19.30;62.30;;;;;;5028692;28;20201;-48
2021/06/30 03:59:52;;;;;;;0.70;0.70;;;19.30;62.90;;;;;;5029478;28;20607;-50
2021/06/30 04:02:18;;;;;;;0.67;0.67;;;19.30;62.70;;;;;;5027000;28;20225;-48
2021/06/30 04:04:44;;;;;;;0.70;0.60;;;19.20;63.00;;;;;;5028476;28;20435;-48
2021/06/30 04:07:11;;;;;;;0.90;0.80;;;19.20;63.30;;;;;;5031717;28;20633;-50
2021/06/30 04:09:36;;;;;;;0.63;0.63;;;19.30;63.00;;;;;;5026667;28;20440;-49
2021/06/30 04:12:02;;;;;;;1.63;0.77;;;19.30;62.50;;;;;;5026841;28;20443;-52
2021/06/30 04:14:28;;;;;;;2.50;0.60;;;19.40;62.30;;;;;;5028750;28;20189;-49
2021/06/30 04:16:53;;;;;;;0.60;0.60;;;19.20;62.20;;;;;;5028092;28;20450;-49
2021/06/30 04:19:20;;;;;;;0.80;0.80;;;19.10;63.00;;;;;;5031602;28;20194;-53
2021/06/30 04:21:46;;;;;;;0.90;0.90;;;19.10;63.10;;;;;;5027452;28;20223;-48
2021/06/30 04:24:12;;;;;;;1.17;0.70;;;19.10;63.50;;;;;;5028509;28;20514;-50
2021/06/30 04:26:37;;;;;;;1.90;0.90;;;19.30;63.40;;;;;;5022724;28;20193;-50
2021/06/30 04:29:03;;;;;;;1.10;0.60;;;19.40;62.90;;;;;;5030005;28;20189;-49
2021/06/30 04:31:30;;;;;;;0.97;0.80;;;19.40;62.60;;;;;;5029541;28;20212;-51
2021/06/30 04:33:55;;;;;;;0.60;0.60;;;19.10;63.70;;;;;;5027496;28;20931;-48
2021/06/30 04:36:21;;;;;;;0.90;0.90;;;19.20;64.30;;;;;;5024048;28;20458;-51
2021/06/30 04:38:47;;;;;;;0.90;0.80;;;19.30;63.80;;;;;;5022964;28;20193;-48
2021/06/30 04:41:12;;;;;;;0.70;0.70;;;19.40;63.60;;;;;;5028566;28;20233;-48
2021/06/30 04:43:39;;;;;;;1.43;1.20;;;19.60;63.30;;;;;;5030462;28;20241;-49
2021/06/30 04:46:06;;;;;;;1.10;1.00;;;19.80;62.90;;;;;;5026663;28;20277;-51
2021/06/30 04:48:31;;;;;;;0.80;0.70;;;19.90;62.50;;;;;;5028348;28;20680;-48
2021/06/30 04:50:57;;;;;;;1.00;1.00;;;19.90;62.60;;;;;;5028002;28;20998;-51
2021/06/30 04:53:23;;;;;;;0.70;0.70;;;20.10;62.70;;;;;;5029323;28;20575;-50
2021/06/30 04:55:48;;;;;;;2.87;0.70;;;20.10;62.10;;;;;;5026354;28;20280;-51
2021/06/30 04:58:14;;;;;;;2.77;0.80;;;20.20;62.20;;;;;;5024670;28;20559;-53
2021/06/30 05:00:40;;;;;;;0.90;0.90;;;20.20;61.20;;;;;;5027621;28;20190;-49
2021/06/30 05:03:05;;;;;;;0.80;0.80;;;20.30;61.20;;;;;;5031742;28;20225;-49
2021/06/30 05:05:31;;;;;;;1.00;0.90;;;20.30;60.70;;;;;;5023173;28;20283;-52
2021/06/30 05:07:57;;;;;;;0.77;0.70;;;20.30;60.70;;;;;;5026892;28;20212;-49
2021/06/30 05:10:23;;;;;;;0.93;0.93;;;20.40;60.60;;;;;;5030077;28;20444;-49
2021/06/30 05:12:48;;;;;;;0.80;0.80;;;20.60;60.40;;;;;;5029594;28;20197;-52
2021/06/30 05:15:14;;;;;;;1.07;0.90;;;20.50;61.30;;;;;;5030059;28;21004;-51
2021/06/30 05:17:40;;;;;;;3.30;0.80;;;20.60;61.80;;;;;;5029747;28;20566;-52
2021/06/30 05:20:06;;;;;;;5.87;1.30;;;20.60;60.70;;;;;;5020514;28;20197;-48
2021/06/30 05:22:32;;;;;;;2.83;1.00;;;20.70;63.10;;;;;;5028635;28;20212;-47
2021/06/30 05:24:57;;;;;;;3.00;0.70;;;20.80;65.20;;;;;;5023277;28;20444;-50
2021/06/30 05:27:23;;;;;;;2.93;1.03;;;21.00;62.50;;;;;;5021825;28;20276;-52
2021/06/30 05:29:48;;;;;;;0.70;0.70;;;21.20;62.90;;;;;;5018751;28;20189;-51
2021/06/30 05:32:14;;;;;;;2.30;0.90;;;21.40;61.80;;;;;;5027609;28;20205;-47
2021/06/30 05:34:40;;;;;;;1.93;1.17;;;21.70;60.10;;;;;;5025122;28;20995;-48
2021/06/30 05:37:06;;;;;;;1.27;1.13;;;21.80;58.20;;;;;;5028786;28;20447;-47
2021/06/30 05:39:32;;;;;;;1.40;0.70;;;21.70;57.30;;;;;;5026203;28;20494;-48
2021/06/30 05:41:57;;;;;;;1.67;0.90;;;21.60;57.50;;;;;;5028729;28;20225;-48
2021/06/30 05:44:23;;;;;;;1.10;1.00;;;21.60;58.20;;;;;;5028135;28;20204;-52
2021/06/30 05:46:48;;;;;;;2.50;0.90;;;21.80;58.20;;;;;;5025786;28;20272;-48
2021/06/30 05:49:16;;;;;;;0.90;0.90;;;21.90;57.20;;;;;;5024124;28;20204;-49
2021/06/30 05:51:42;;;;;;;1.17;0.83;;;21.70;57.00;;;;;;5025504;28;21821;-49
2021/06/30 05:54:09;;;;;;;3.50;0.80;;;21.50;57.00;;;;;;5024877;28;20448;-47
2021/06/30 05:56:35;;;;;;;1.00;0.70;;;21.70;57.40;;;;;;5020591;28;20265;-48
2021/06/30 05:59:01;;;;;;;2.40;0.87;;;21.60;57.90;;;;;;5024660;28;20819;-47
2021/06/30 06:01:26;;;;;;;2.40;1.07;;;21.80;57.40;;;;;;5023557;28;20927;-47
2021/06/30 06:03:52;;;;;;;0.80;0.77;;;21.70;57.40;;;;;;5029743;28;20236;-49
2021/06/30 06:06:18;;;;;;;1.57;0.80;;;21.60;57.50;;;;;;5027006;28;20193;-49
2021/06/30 06:08:43;;;;;;;0.73;0.73;;;21.50;57.40;;;;;;5026517;28;20251;-50
2021/06/30 06:11:12;;;;;;;0.80;0.77;;;21.60;58.00;;;;;;5028792;28;20280;-48
2021/06/30 06:13:40;;;;;;;2.70;0.90;;;21.80;57.80;;;;;;5028961;28;20573;-47
2021/06/30 06:16:07;;;;;;;0.80;0.63;;;21.80;57.30;;;;;;5024773;28;20869;-47
2021/06/30 06:18:33;;;;;;;0.80;0.80;;;21.80;57.40;;;;;;5028014;28;20456;-48
2021/06/30 06:20:59;;;;;;;1.67;0.83;;;21.70;57.20;;;;;;5027401;28;20559;-53
2021/06/30 06:23:25;;;;;;;0.87;0.77;;;21.80;57.30;;;;;;5020372;28;20233;-50
2021/06/30 06:25:50;;;;;;;0.80;0.80;;;21.70;57.10;;;;;;5026778;28;20535;-47
2021/06/30 06:28:16;;;;;;;0.60;0.60;;;21.60;57.10;;;;;;5018625;28;20194;-51
2021/06/30 06:30:41;;;;;;;1.43;0.90;;;21.80;57.50;;;;;;5021335;28;20201;-48
2021/06/30 06:33:07;;;;;;;2.20;0.80;;;21.80;57.10;;;;;;5021268;28;20244;-47
2021/06/30 06:35:33;;;;;;;4.63;0.87;;;22.00;57.00;;;;;;5024515;28;20212;-47
2021/06/30 06:38:00;;;;;;;0.70;0.70;;;21.90;56.70;;;;;;5026842;28;20197;-47
2021/06/30 06:40:26;;;;;;;1.43;0.67;;;21.90;56.60;;;;;;5022083;28;20606;-50
2021/06/30 06:42:53;;;;;;;0.80;0.80;;;21.90;57.00;;;;;;5023995;28;20486;-47
2021/06/30 06:45:18;;;;;;;1.17;1.07;;;21.90;56.70;;;;;;5024525;28;20201;-48
2021/06/30 06:47:44;;;;;;;3.03;0.97;;;21.90;56.20;;;;;;5025386;28;20452;-48
2021/06/30 06:50:10;;;;;;;3.57;1.20;;;21.80;56.60;;;;;;5013572;28;20205;-48
2021/06/30 06:52:35;;;;;;;0.77;0.77;;;21.90;56.90;;;;;;5025085;28;20649;-50
2021/06/30 06:55:02;;;;;;;1.27;0.70;;;21.90;56.50;;;;;;5017434;28;20452;-51
2021/06/30 06:57:28;;;;;;;1.60;0.83;;;21.90;56.70;;;;;;5022042;28;20194;-49
2021/06/30 06:59:53;;;;;;;1.50;0.90;;;22.00;57.00;;;;;;5025990;28;20787;-53
2021/06/30 07:02:19;;;;;;;0.77;0.77;;;22.10;57.00;;;;;;5025119;28;20225;-49
2021/06/30 07:04:44;;;;;;;0.97;0.90;;;22.10;56.40;;;;;;5027167;28;20272;-48
2021/06/30 07:07:13;;;;;;;3.07;0.80;;;22.20;55.50;;;;;;5021314;28;20197;-48
2021/06/30 07:09:39;;;;;;;1.77;0.70;;;22.40;56.70;;;;;;5021152;28;20687;-52
2021/06/30 07:12:05;;;;;;;0.80;0.80;;;22.40;55.50;;;;;;5021013;28;20864;-48
2021/06/30 07:14:31;;;;;;;0.80;0.80;;;22.50;55.70;;;;;;5025544;28;20463;-51
2021/06/30 07:16:56;;;;;;;1.10;1.00;;;22.60;55.20;;;;;;5026208;28;20194;-47
2021/06/30 07:19:22;;;;;;;0.70;0.70;;;22.60;55.30;;;;;;5025057;28;20189;-53
2021/06/30 07:21:47;;;;;;;1.33;0.87;;;22.80;55.20;;;;;;5020706;28;20212;-51
2021/06/30 07:24:13;;;;;;;0.80;0.80;;;22.80;54.20;;;;;;5024814;28;20278;-51
2021/06/30 07:26:38;;;;;;;0.90;0.70;;;22.80;54.50;;;;;;5026196;28;20193;-50
2021/06/30 07:29:04;;;;;;;0.80;0.80;;;22.60;53.70;;;;;;5023760;28;20189;-51
2021/06/30 07:31:30;;;;;;;2.20;0.80;;;22.50;55.00;;;;;;5025656;28;20224;-49
2021/06/30 07:33:55;;;;;;;4.00;0.73;;;22.20;54.60;;;;;;5030780;28;20256;-48
2021/06/30 07:36:21;;;;;;;0.80;0.70;;;22.20;55.40;;;;;;5025827;28;20239;-48
2021/06/30 07:38:46;;;;;;;2.00;0.73;;;22.20;55.30;;;;;;5030895;28;20315;-50
2021/06/30 07:41:12;;;;;;;1.27;0.70;;;22.20;54.30;;;;;;5032689;28;20236;-48
2021/06/30 07:43:38;;;;;;;1.00;0.83;;;22.20;54.60;;;;;;5031643;28;20224;-49
2021/06/30 07:46:04;;;;;;;0.80;0.80;;;22.30;53.90;;;;;;5029724;28;20201;-51
2021/06/30 07:48:30;;;;;;;1.83;0.90;;;22.40;54.30;;;;;;5029254;28;20231;-51
2021/06/30 07:50:55;;;;;;;0.90;0.57;;;22.50;54.20;;;;;;5021914;28;20557;-49
2021/06/30 07:53:21;;;;;;;0.60;0.60;;;22.30;52.90;;;;;;5026312;28;20197;-48
2021/06/30 07:55:47;;;;;;;1.10;0.70;;;22.50;53.30;;;;;;5028758;28;20194;-49
2021/06/30 07:58:13;;;;;;;0.60;0.60;;;22.50;51.80;;;;;;5027952;28;20197;-53
2021/06/30 08:00:39;;;;;;;0.90;0.77;;;22.50;50.40;;;;;;5030415;28;20650;-50
2021/06/30 08:03:05;;;;;;;0.80;0.70;;;22.70;51.40;;;;;;5032656;28;20494;-49
2021/06/30 08:05:33;;;;;;;1.47;0.63;;;22.50;50.40;;;;;;5019577;28;20208;-53
2021/06/30 08:07:58;;;;;;;1.00;0.70;;;22.70;51.50;;;;;;5024894;28;20202;-51
2021/06/30 08:10:24;;;;;;;0.50;0.50;;;23.00;52.40;;;;;;5029112;28;20429;-51
2021/06/30 08:12:50;;;;;;;0.60;0.60;;;22.80;50.00;;;;;;5019287;28;20200;-54
2021/06/30 08:15:15;;;;;;;0.60;0.60;;;22.80;51.00;;;;;;5029377;28;20304;-48
2021/06/30 08:17:45;;;;;;;0.70;0.50;;;22.50;51.20;;;;;;5033417;28;20207;-47
2021/06/30 08:20:11;;;;;;;1.93;0.70;;;22.30;50.30;;;;;;5029743;28;20556;-51
2021/06/30 08:22:36;;;;;;;0.70;0.60;;;22.20;50.80;;;;;;5025084;28;20471;-51
2021/06/30 08:25:02;;;;;;;2.00;0.60;;;22.50;51.60;;;;;;5030790;28;20243;-52
2021/06/30 08:27:28;;;;;;;0.70;0.70;;;22.50;51.30;;;;;;5030525;28;20208;-48
2021/06/30 08:29:54;;;;;;;1.27;0.70;;;22.60;51.40;;;;;;5032342;28;20436;-49
2021/06/30 08:32:23;;;;;;;0.70;0.63;;;22.90;51.30;;;;;;5032921;28;20205;-50
2021/06/30 08:34:48;;;;;;;0.70;0.70;;;23.00;51.00;;;;;;5032641;28;20432;-50
2021/06/30 08:37:14;;;;;;;0.60;0.60;;;23.20;50.50;;;;;;5020879;28;20460;-49
2021/06/30 08:39:40;;;;;;;0.60;0.60;;;23.30;49.90;;;;;;5019287;28;20202;-49
2021/06/30 08:42:06;;;;;;;0.90;0.70;;;23.30;48.90;;;;;;5013788;28;20514;-51
2021/06/30 08:44:31;;;;;;;1.33;0.60;;;23.30;49.40;;;;;;5019408;28;20633;-49
2021/06/30 08:46:57;;;;;;;1.57;0.63;;;23.20;50.20;;;;;;5030999;28;20197;-49
2021/06/30 08:49:26;;;;;;;0.60;0.60;;;22.70;50.90;;;;;;5029297;28;20664;-51
2021/06/30 08:51:53;;;;;;;2.30;0.60;;;22.60;51.20;;;;;;5032177;28;20487;-53
2021/06/30 08:54:20;;;;;;;0.93;0.73;;;22.70;51.40;;;;;;5023530;28;20444;-49
2021/06/30 08:56:46;;;;;;;0.80;0.60;;;22.50;51.00;;;;;;5028155;28;20439;-52
2021/06/30 08:59:12;;;;;;;0.60;0.60;;;22.30;51.70;;;;;;5025748;28;20881;-49
2021/06/30 09:01:37;;;;;;;1.00;0.60;;;22.20;52.40;;;;;;5012607;28;20428;-47
2021/06/30 09:04:04;;;;;;;0.50;0.50;;;22.20;52.70;;;;;;5012447;28;20734;-50
2021/06/30 09:06:31;;;;;;;0.80;0.60;;;22.10;53.00;;;;;;5022131;28;20205;-52
2021/06/30 09:09:00;;;;;;;0.60;0.60;;;22.20;52.90;;;;;;5022660;28;20506;-49
2021/06/30 09:11:27;;;;;;;0.70;0.60;;;22.20;53.40;;;;;;5022946;28;20433;-52
2021/06/30 09:14:22;;;;;;;1.23;0.90;;;22.30;52.60;;;;;;5012433;28;20429;-48
2021/06/30 09:20:13;;;;;;;1.07;0.80;;;22.50;53.20;;;;;;5020971;28;20454;-48
2021/06/30 09:22:46;;;;;;;1.00;0.70;;;22.60;53.50;;;;;;5016981;28;20484;-52
2021/06/30 09:25:34;;;;;;;0.90;0.70;;;23.00;53.50;;;;;;5017094;28;20432;-52
2021/06/30 09:27:59;;;;;;;0.60;0.60;;;22.90;52.20;;;;;;5027587;28;20435;-51
2021/06/30 09:30:25;;;;;;;1.17;0.70;;;22.80;52.80;;;;;;5031154;28;20951;-48
2021/06/30 09:32:56;;;;;;;0.70;0.70;;;22.80;54.90;;;;;;5030549;28;20189;-50
2021/06/30 09:35:25;;;;;;;0.67;0.67;;;22.70;53.40;;;;;;5027151;28;20615;-51
2021/06/30 09:37:51;;;;;;;0.77;0.77;;;22.90;54.80;;;;;;5027986;28;20447;-49
2021/06/30 09:40:17;;;;;;;0.97;0.70;;;23.10;55.10;;;;;;5022171;28;20468;-52
2021/06/30 09:42:43;;;;;;;1.13;0.93;;;23.30;55.00;;;;;;5028539;28;20229;-47
2021/06/30 09:45:10;;;;;;;2.93;0.87;;;23.50;54.50;;;;;;5024929;28;20613;-51
2021/06/30 09:47:42;;;;;;;0.73;0.73;;;23.60;54.50;;;;;;5019706;28;20817;-50
2021/06/30 09:50:08;;;;;;;1.20;1.10;;;23.70;53.30;;;;;;5020505;28;20994;-52
2021/06/30 09:52:39;;;;;;;0.80;0.80;;;23.90;52.80;;;;;;5020726;28;20474;-48
2021/06/30 09:55:22;;;;;;;0.83;0.80;;;24.10;52.00;;;;;;5024701;28;20200;-49
2021/06/30 09:57:47;;;;;;;2.70;1.43;;;23.90;50.60;;;;;;5029070;28;20436;-51
2021/06/30 10:00:13;;;;;;;4.77;2.40;;;23.70;51.70;;;;;;5029535;28;20436;-51
2021/06/30 10:02:44;;;;;;;0.87;0.87;;;23.90;52.90;;;;;;5027638;28;20311;-48
2021/06/30 10:05:10;;;;;;;4.33;1.30;;;24.00;50.50;;;;;;5023056;28;20201;-50
2021/06/30 10:07:35;;;;;;;2.33;1.40;;;24.20;51.10;;;;;;5029458;28;20451;-52
2021/06/30 10:10:07;;;;;;;1.53;1.30;;;24.40;51.30;;;;;;5027432;28;20223;-52
2021/06/30 10:12:34;;;;;;;22.30;8.13;;;24.50;50.40;;;;;;5030740;28;20208;-48
2021/06/30 10:15:02;;;;;;;3.67;1.47;;;24.60;49.70;;;;;;5029895;28;20439;-50
2021/06/30 10:17:29;;;;;;;1.23;0.70;;;24.80;48.30;;;;;;5030681;28;20432;-50
2021/06/30 10:19:56;;;;;;;2.10;0.80;;;23.90;50.00;;;;;;5025102;28;20523;-48
2021/06/30 10:22:27;;;;;;;2.20;1.00;;;22.70;54.20;;;;;;5028637;28;20659;-52
2021/06/30 10:24:54;;;;;;;1.00;0.87;;;22.70;56.00;;;;;;5029381;28;20531;-49
2021/06/30 10:27:21;;;;;;;2.50;1.00;;;23.00;55.40;;;;;;5030945;28;20855;-53
2021/06/30 10:29:55;;;;;;;2.37;1.00;;;23.20;56.10;;;;;;5025183;28;20471;-51
2021/06/30 10:32:21;;;;;;;0.70;0.60;;;23.30;56.50;;;;;;5020694;28;20841;-49
2021/06/30 10:34:54;;;;;;;1.20;1.10;;;23.40;58.00;;;;;;5022391;28;20482;-50
2021/06/30 10:37:28;;;;;;;3.40;0.90;;;23.60;59.20;;;;;;5028156;28;20454;-52
2021/06/30 10:40:15;;;;;;;2.90;1.00;;;23.80;59.30;;;;;;5024136;28;20459;-52
2021/06/30 10:42:42;;;;;;;1.13;0.77;;;24.00;60.10;;;;;;5034496;28;20490;-49
2021/06/30 10:45:14;;;;;;;0.73;0.73;;;24.30;60.30;;;;;;5028571;28;20443;-47
2021/06/30 10:48:00;;;;;;;1.30;0.90;;;24.50;57.60;;;;;;5027545;28;20506;-51
2021/06/30 10:50:33;;;;;;;2.40;0.60;;;24.60;57.00;;;;;;5028624;28;20502;-49
2021/06/30 10:53:08;;;;;;;2.10;1.17;;;24.70;56.50;;;;;;5027851;28;20444;-50
2021/06/30 10:55:37;;;;;;;3.37;0.80;;;24.70;55.10;;;;;;5019434;28;20450;-50
2021/06/30 10:58:12;;;;;;;4.10;1.10;;;24.60;55.60;;;;;;5029259;28;20498;-50
2021/06/30 11:00:51;;;;;;;0.70;0.70;;;24.70;55.50;;;;;;5029388;28;20451;-46
2021/06/30 11:03:33;;;;;;;1.87;0.90;;;24.60;53.90;;;;;;5028665;28;20989;-51
2021/06/30 11:06:13;;;;;;;1.57;1.00;;;24.60;54.20;;;;;;5029187;28;20439;-51
2021/06/30 11:08:45;;;;;;;1.50;0.80;;;24.80;54.00;;;;;;5033216;28;20454;-51
2021/06/30 11:11:16;;;;;;;0.90;0.60;;;24.80;54.10;;;;;;5028671;28;20466;-52
2021/06/30 11:13:56;;;;;;;0.73;0.60;;;25.00;55.30;;;;;;5017056;28;20908;-48
2021/06/30 11:16:40;;;;;;;0.80;0.70;;;25.10;55.10;;;;;;5024388;28;20500;-51
2021/06/30 11:19:14;;;;;;;0.80;0.80;;;25.10;53.20;;;;;;5033587;28;20454;-48
2021/06/30 11:21:50;;;;;;;0.63;0.63;;;25.00;52.00;;;;;;5031323;28;20487;-51
2021/06/30 11:27:28;;;;;;;1.10;1.00;;;24.80;51.30;;;;;;5032945;28;20487;-51
2021/06/30 11:29:58;;;;;;;1.40;0.80;;;24.70;53.10;;;;;;5020596;28;20479;-50
2021/06/30 11:32:34;;;;;;;0.90;0.90;;;24.50;54.10;;;;;;5030217;28;20448;-51
2021/06/30 11:35:24;;;;;;;0.90;0.90;;;24.20;55.40;;;;;;5028839;28;20804;-48
2021/06/30 11:38:00;;;;;;;0.70;0.70;;;24.10;56.00;;;;;;5030045;28;20543;-46
2021/06/30 11:40:48;;;;;;;0.70;0.70;;;24.30;56.60;;;;;;5032050;28;20823;-51
2021/06/30 11:43:17;;;;;;;0.70;0.70;;;24.40;56.70;;;;;;5025962;28;20987;-51
2021/06/30 11:45:43;;;;;;;0.80;0.70;;;24.50;57.10;;;;;;5023829;28;20519;-49
2021/06/30 11:48:12;;;;;;;0.73;0.73;;;24.60;57.50;;;;;;5031342;28;20443;-50
2021/06/30 11:51:00;;;;;;;1.43;0.90;;;24.70;56.60;;;;;;5026735;28;20217;-50
2021/06/30 11:53:37;;;;;;;1.03;0.90;;;24.70;55.80;;;;;;5024020;28;20455;-49
2021/06/30 11:56:05;;;;;;;1.43;1.30;;;24.70;56.20;;;;;;5029545;28;20444;-48
2021/06/30 11:58:47;;;;;;;2.00;0.70;;;24.70;55.60;;;;;;5031652;28;20455;-51
2021/06/30 12:01:32;;;;;;;1.50;0.90;;;24.60;55.80;;;;;;5025191;28;20453;-51
2021/06/30 12:04:21;;;;;;;0.83;0.83;;;24.60;55.70;;;;;;5017396;28;21006;-50
2021/06/30 12:06:49;;;;;;;1.53;0.80;;;24.50;55.60;;;;;;5022902;28;20447;-47
2021/06/30 12:09:15;;;;;;;0.80;0.80;;;24.40;56.20;;;;;;5030798;28;20444;-52
2021/06/30 12:11:46;;;;;;;2.73;0.90;;;24.30;57.00;;;;;;5026932;28;20438;-48
2021/06/30 12:14:14;;;;;;;1.10;1.00;;;24.00;56.40;;;;;;5031338;28;20464;-52
2021/06/30 12:17:04;;;;;;;4.40;1.87;;;23.70;56.40;;;;;;5028353;28;20833;-52
2021/06/30 12:19:31;;;;;;;3.30;1.43;;;23.40;58.90;;;;;;5022278;28;20479;-51
2021/06/30 12:21:58;;;;;;;2.40;1.50;;;23.30;58.70;;;;;;5030736;28;20522;-51
2021/06/30 12:24:25;;;;;;;3.67;1.20;;;23.30;59.70;;;;;;5029235;28;20495;-50
2021/06/30 12:27:01;;;;;;;2.53;1.17;;;23.60;59.50;;;;;;5021707;28;20513;-51
2021/06/30 12:29:27;;;;;;;2.80;0.90;;;24.00;58.10;;;;;;5022539;28;20494;-52
2021/06/30 12:31:53;;;;;;;4.33;1.20;;;24.20;57.60;;;;;;5025545;28;20455;-51
2021/06/30 12:34:19;;;;;;;1.37;1.17;;;24.40;57.50;;;;;;5027744;28;20526;-50
2021/06/30 12:36:45;;;;;;;1.43;1.10;;;24.70;56.90;;;;;;5026957;28;20440;-46
2021/06/30 12:39:28;;;;;;;2.73;1.00;;;24.80;57.10;;;;;;5027006;28;20443;-47
2021/06/30 12:41:59;;;;;;;1.43;0.80;;;24.90;56.90;;;;;;5028731;28;20216;-50
2021/06/30 12:44:26;;;;;;;2.30;0.93;;;25.10;56.70;;;;;;5028797;28;20535;-50
2021/06/30 12:47:12;;;;;;;1.00;0.90;;;25.30;56.90;;;;;;5029169;28;20473;-48
2021/06/30 12:49:39;;;;;;;2.47;0.93;;;25.60;57.00;;;;;;5021681;28;20439;-51
2021/06/30 12:52:05;;;;;;;1.13;0.97;;;25.00;55.70;;;;;;5018103;28;20437;-51
2021/06/30 12:54:31;;;;;;;1.27;1.17;;;24.80;57.20;;;;;;5028822;28;20515;-49
2021/06/30 12:57:04;;;;;;;2.10;1.10;;;24.90;57.20;;;;;;5025004;28;20535;-52